AirNav  
 
 980 users online  

6MA0 Lake Gardner Seaplane Base
Amesbury, Massachusetts, USA

GOING TO AMESBURY?


FAA INFORMATION EFFECTIVE 25 MARCH 2021

Location

FAA Identifier: 6MA0
Lat/Long: 42-51-41.3240N 070-56-36.1980W
42-51.688733N 070-56.603300W
42.8614789,-70.9433883
(estimated)
Elevation: 87 ft. / 27 m (estimated)
Variation: 16W (1985)
From city: 1 mile NW of AMESBURY, MA
Time zone: UTC -4 (UTC -5 during Standard Time)
Zip code: 01913

Seaplane Base Operations

Seaplane Base use: Private use. Permission required prior to landing
Activation date: 05/1988
Control tower: no
ARTCC: BOSTON CENTER
FSS: BRIDGEPORT FLIGHT SERVICE STATION
Attendance: UNATNDD
Segmented circle: no

Seaplane Base Communications

WX ASOS at LWM (12 nm SW): PHONE 978-687-8017
WX ASOS at BVY (17 nm S): 119.2 (978-921-5042)

Nearby radio navigation aids

VOR radial/distance  VOR name  Freq  Var
LWMr058/9.9LAWRENCE VOR/DME112.5015W
PSMr216/14.2PEASE VOR/DME116.5016W
MHTr106/18.7MANCHESTER VOR/DME114.4015W
BOSr020/30.3BOSTON VOR/DME112.7016W
CONr143/35.1CONCORD VOR/DME112.9015W
ENEr220/36.8KENNEBUNK VOR/DME117.1017W

 
NDB name  Hdg/Dist  Freq  Var  ID
ROLLINS209/22.126016WESG . ... --.

Seaplane Base Services

Runway Information

Runway 17W/35W

Dimensions: 3000 x 200 ft. / 914 x 61 m
Surface: water
RUNWAY 17W  RUNWAY 35W
Traffic pattern: leftleft

Seaplane Base Ownership and Management from official FAA records

Ownership: Privately-owned
Owner: RICHARD J. SHULMAN
97 WHITEHALL ROAD
AMESBURY, MA 01913
Phone 207-439-6544
Manager: RICHARD J. SHULMAN
2 MITRA LANE
ELIOT, ME 03903
Phone 207-439-6544

Additional Remarks

FOR CD CTC BOSTON APCH AT 603-594-5551.

Instrument Procedures

There are no published instrument procedures at 6MA0.

Some nearby airports with instrument procedures:

KLWM - Lawrence Municipal Airport (12 nm SW)
KPSM - Portsmouth International Airport at Pease (14 nm N)
KBVY - Beverly Regional Airport (17 nm S)
3B4 - Littlebrook Air Park (18 nm NE)
KMHT - Manchester Airport (22 nm W)
 
Loc | Ops | Rwys | IFR | FBO | Links
Com | Nav | Svcs | Stats | Notes
Area around 6MA0 (Lake Gardner Seaplane Base)
 
Road maps at: MapQuest Bing Google
 
Aerial photo
No photo
 
Sectional chart

 
Airport distance calculator
Flying to Lake Gardner Seaplane Base? Find the distance to fly.

From to 6MA0

Sunrise and sunset
Times for 11-Apr-2021
 Local
(UTC-4)
 Zulu
(UTC)
Morning civil twilight05:4109:41
Sunrise06:1010:10
Sunset19:2023:20
Evening civil twilight19:4923:49

Current date and time
Zulu (UTC)  12-Apr-2021 00:54:53
Local (UTC-4)  11-Apr-2021 20:54:53
 
METAR
KLWM 
12nm SW 
112354Z 08004KT 10SM OVC008 07/04 A2980 RMK AO2 SLP092 T00670044 10078 20067 53003
KPSM 
14nm NE 
112356Z 11004KT 10SM FEW020 SCT100 OVC200 06/04 A2980 RMK AO2A SLP094 T00560036 10092 20056 50004
KBVY 
17nm S 
112353Z 00000KT 10SM OVC007 07/04 A2979 RMK AO2 SLP083 T00670044 10083 20061 53004
KMHT 
22nm W 
112353Z 10004KT 10SM OVC200 09/03 A2977 RMK AO2 SLP094 T00890028 10122 20089 53006 $
TAF
KPSM 
14nm NE 
111914Z 1119/1218 07006KT P6SM SCT015 BKN250 FM120300 03005KT P6SM OVC035 FM121100 04007KT P6SM OVC009
NOTAMs
Click for the latest NOTAMs
NOTAMs are issued by the DoD/FAA and will open in a separate window not controlled by AirNav.

 

 
 

Would you like to see your business listed on this page?

 If your business provides an interesting product or service to pilots, flight crews, aircraft, or users of the Lake Gardner Seaplane Base, you should consider listing it here.  To start the listing process, click on the button below
 
Add a business
 

Other Pages about Lake Gardner Seaplane Base

Update a link
 
Copyright © AirNav, LLC. All rights reserved. Privacy Policy  Contact